sensor_id;sensor_type;location;lat;lon;timestamp;pressure;altitude;pressure_sealevel;temperature;humidity
20628;BME280;10473;42.734;24.258;2023-03-23T00:01:21;91781.31;;;6.88;82.40
20628;BME280;10473;42.734;24.258;2023-03-23T00:03:53;91750.53;;;7.11;81.33
20628;BME280;10473;42.734;24.258;2023-03-23T00:06:24;91754.78;;;7.15;81.66
20628;BME280;10473;42.734;24.258;2023-03-23T00:08:53;91759.00;;;7.01;83.02
20628;BME280;10473;42.734;24.258;2023-03-23T00:11:26;91750.25;;;7.16;83.00
20628;BME280;10473;42.734;24.258;2023-03-23T00:13:56;91745.16;;;7.23;82.15
20628;BME280;10473;42.734;24.258;2023-03-23T00:16:29;91752.78;;;7.28;81.19
20628;BME280;10473;42.734;24.258;2023-03-23T00:19:01;91740.84;;;7.15;81.32
20628;BME280;10473;42.734;24.258;2023-03-23T00:21:32;91752.72;;;7.24;82.26
20628;BME280;10473;42.734;24.258;2023-03-23T00:24:02;91752.91;;;7.35;82.10
20628;BME280;10473;42.734;24.258;2023-03-23T00:26:30;91742.13;;;7.43;81.75
20628;BME280;10473;42.734;24.258;2023-03-23T00:29:01;91758.84;;;7.51;80.42
20628;BME280;10473;42.734;24.258;2023-03-23T00:31:29;91753.03;;;7.42;81.66
20628;BME280;10473;42.734;24.258;2023-03-23T00:34:03;91758.59;;;7.37;81.62
20628;BME280;10473;42.734;24.258;2023-03-23T00:36:32;91751.59;;;7.44;81.60
20628;BME280;10473;42.734;24.258;2023-03-23T00:39:02;91753.50;;;7.47;81.48
20628;BME280;10473;42.734;24.258;2023-03-23T00:41:30;91760.00;;;7.53;81.23
20628;BME280;10473;42.734;24.258;2023-03-23T00:44:00;91759.53;;;7.67;80.79
20628;BME280;10473;42.734;24.258;2023-03-23T00:46:27;91759.31;;;7.56;81.25
20628;BME280;10473;42.734;24.258;2023-03-23T00:48:55;91764.03;;;7.66;81.38
20628;BME280;10473;42.734;24.258;2023-03-23T00:51:25;91744.69;;;7.81;80.42
20628;BME280;10473;42.734;24.258;2023-03-23T00:53:52;91748.97;;;7.67;80.61
20628;BME280;10473;42.734;24.258;2023-03-23T00:56:21;91739.75;;;7.80;80.46
20628;BME280;10473;42.734;24.258;2023-03-23T00:58:49;91741.47;;;7.91;80.03
20628;BME280;10473;42.734;24.258;2023-03-23T01:01:17;91734.44;;;7.99;79.50
20628;BME280;10473;42.734;24.258;2023-03-23T01:03:45;91726.88;;;7.97;79.00
20628;BME280;10473;42.734;24.258;2023-03-23T01:06:12;91740.34;;;7.92;79.29
20628;BME280;10473;42.734;24.258;2023-03-23T01:09:08;91738.19;;;7.98;79.87
20628;BME280;10473;42.734;24.258;2023-03-23T01:11:35;91738.59;;;8.00;79.65
20628;BME280;10473;42.734;24.258;2023-03-23T01:14:05;91728.28;;;7.69;79.67
20628;BME280;10473;42.734;24.258;2023-03-23T01:16:33;91738.84;;;7.91;79.50
20628;BME280;10473;42.734;24.258;2023-03-23T01:19:00;91740.94;;;8.05;78.82
20628;BME280;10473;42.734;24.258;2023-03-23T01:21:28;91734.56;;;8.06;78.35
20628;BME280;10473;42.734;24.258;2023-03-23T01:23:56;91740.00;;;8.16;77.49
20628;BME280;10473;42.734;24.258;2023-03-23T01:26:27;91727.16;;;8.15;77.63
20628;BME280;10473;42.734;24.258;2023-03-23T01:28:55;91726.44;;;8.18;77.53
20628;BME280;10473;42.734;24.258;2023-03-23T01:31:24;91732.59;;;8.22;77.00
20628;BME280;10473;42.734;24.258;2023-03-23T01:33:53;91722.72;;;7.74;79.28
20628;BME280;10473;42.734;24.258;2023-03-23T01:36:23;91721.00;;;7.62;80.72
20628;BME280;10473;42.734;24.258;2023-03-23T01:38:51;91707.88;;;7.66;80.49
20628;BME280;10473;42.734;24.258;2023-03-23T01:41:21;91711.75;;;7.49;80.67
20628;BME280;10473;42.734;24.258;2023-03-23T01:44:02;91702.78;;;7.54;80.90
20628;BME280;10473;42.734;24.258;2023-03-23T01:46:44;91717.91;;;7.57;80.44
20628;BME280;10473;42.734;24.258;2023-03-23T01:49:14;91715.44;;;7.45;81.94
20628;BME280;10473;42.734;24.258;2023-03-23T01:51:49;91719.38;;;7.54;81.49
20628;BME280;10473;42.734;24.258;2023-03-23T01:54:18;91717.03;;;7.49;80.80
20628;BME280;10473;42.734;24.258;2023-03-23T01:56:52;91718.25;;;7.33;80.79
20628;BME280;10473;42.734;24.258;2023-03-23T01:59:23;91730.06;;;7.42;80.58
20628;BME280;10473;42.734;24.258;2023-03-23T02:02:12;91733.78;;;7.19;80.44
20628;BME280;10473;42.734;24.258;2023-03-23T02:04:43;91745.16;;;7.23;80.68
20628;BME280;10473;42.734;24.258;2023-03-23T02:07:13;91750.34;;;7.19;80.59
20628;BME280;10473;42.734;24.258;2023-03-23T02:09:41;91747.50;;;7.28;81.59
20628;BME280;10473;42.734;24.258;2023-03-23T02:12:09;91743.13;;;6.97;81.93
20628;BME280;10473;42.734;24.258;2023-03-23T02:14:39;91743.19;;;6.82;84.13
20628;BME280;10473;42.734;24.258;2023-03-23T02:17:10;91743.34;;;7.08;82.81
20628;BME280;10473;42.734;24.258;2023-03-23T02:20:01;91733.91;;;7.26;82.45
20628;BME280;10473;42.734;24.258;2023-03-23T02:22:48;91718.09;;;7.26;82.18
20628;BME280;10473;42.734;24.258;2023-03-23T02:25:35;91722.78;;;7.36;81.49
20628;BME280;10473;42.734;24.258;2023-03-23T02:28:31;91713.31;;;7.12;82.52
20628;BME280;10473;42.734;24.258;2023-03-23T02:31:17;91709.44;;;7.25;81.82
20628;BME280;10473;42.734;24.258;2023-03-23T02:33:50;91719.09;;;7.18;82.40
20628;BME280;10473;42.734;24.258;2023-03-23T02:36:23;91720.59;;;7.38;81.49
20628;BME280;10473;42.734;24.258;2023-03-23T02:38:58;91727.19;;;7.51;80.25
20628;BME280;10473;42.734;24.258;2023-03-23T02:41:32;91724.66;;;7.54;79.58
20628;BME280;10473;42.734;24.258;2023-03-23T02:44:03;91735.38;;;7.65;79.28
20628;BME280;10473;42.734;24.258;2023-03-23T02:46:32;91726.63;;;7.61;79.32
20628;BME280;10473;42.734;24.258;2023-03-23T02:49:03;91730.19;;;7.68;78.65
20628;BME280;10473;42.734;24.258;2023-03-23T02:51:34;91729.50;;;7.75;78.02
20628;BME280;10473;42.734;24.258;2023-03-23T02:54:04;91748.19;;;7.66;78.74
20628;BME280;10473;42.734;24.258;2023-03-23T02:56:34;91746.06;;;7.72;79.09
20628;BME280;10473;42.734;24.258;2023-03-23T02:59:07;91749.59;;;7.60;79.33
20628;BME280;10473;42.734;24.258;2023-03-23T03:02:04;91754.94;;;7.64;79.67
20628;BME280;10473;42.734;24.258;2023-03-23T03:04:34;91757.44;;;7.76;78.79
20628;BME280;10473;42.734;24.258;2023-03-23T03:07:20;91751.44;;;7.79;78.52
20628;BME280;10473;42.734;24.258;2023-03-23T03:09:54;91750.25;;;7.54;79.61
20628;BME280;10473;42.734;24.258;2023-03-23T03:12:31;91759.81;;;7.62;79.48
20628;BME280;10473;42.734;24.258;2023-03-23T03:15:09;91770.38;;;7.43;79.92
20628;BME280;10473;42.734;24.258;2023-03-23T03:17:44;91767.28;;;7.60;80.36
20628;BME280;10473;42.734;24.258;2023-03-23T03:20:44;91753.00;;;7.61;78.98
20628;BME280;10473;42.734;24.258;2023-03-23T03:23:16;91761.44;;;7.70;78.71
20628;BME280;10473;42.734;24.258;2023-03-23T03:25:46;91760.94;;;7.83;78.08
20628;BME280;10473;42.734;24.258;2023-03-23T03:28:21;91770.44;;;7.88;77.25
20628;BME280;10473;42.734;24.258;2023-03-23T03:30:55;91763.50;;;7.80;77.95
20628;BME280;10473;42.734;24.258;2023-03-23T03:33:24;91754.22;;;7.86;77.21
20628;BME280;10473;42.734;24.258;2023-03-23T03:35:56;91747.22;;;7.97;76.75
20628;BME280;10473;42.734;24.258;2023-03-23T03:38:25;91748.06;;;8.01;76.43
20628;BME280;10473;42.734;24.258;2023-03-23T03:40:54;91754.84;;;8.02;75.89
20628;BME280;10473;42.734;24.258;2023-03-23T03:43:23;91754.72;;;7.95;76.12
20628;BME280;10473;42.734;24.258;2023-03-23T03:45:51;91759.78;;;7.81;77.21
20628;BME280;10473;42.734;24.258;2023-03-23T03:48:19;91760.19;;;7.83;77.80
20628;BME280;10473;42.734;24.258;2023-03-23T03:50:47;91754.72;;;7.95;77.18
20628;BME280;10473;42.734;24.258;2023-03-23T03:53:16;91756.25;;;7.96;76.16
20628;BME280;10473;42.734;24.258;2023-03-23T03:55:44;91754.91;;;7.83;76.99
20628;BME280;10473;42.734;24.258;2023-03-23T03:58:16;91758.47;;;7.94;76.11
20628;BME280;10473;42.734;24.258;2023-03-23T04:01:06;91760.06;;;7.98;75.78
20628;BME280;10473;42.734;24.258;2023-03-23T04:03:38;91761.97;;;7.79;77.36
20628;BME280;10473;42.734;24.258;2023-03-23T04:06:14;91764.22;;;7.77;77.96
20628;BME280;10473;42.734;24.258;2023-03-23T04:08:44;91758.94;;;7.77;77.28
20628;BME280;10473;42.734;24.258;2023-03-23T04:11:13;91755.38;;;7.88;76.73
20628;BME280;10473;42.734;24.258;2023-03-23T04:13:43;91761.00;;;7.87;76.30
20628;BME280;10473;42.734;24.258;2023-03-23T04:16:20;91765.97;;;7.92;76.19
20628;BME280;10473;42.734;24.258;2023-03-23T04:18:49;91767.13;;;7.49;78.02
20628;BME280;10473;42.734;24.258;2023-03-23T04:21:18;91757.19;;;7.62;78.73
20628;BME280;10473;42.734;24.258;2023-03-23T04:23:50;91759.00;;;7.39;78.78
20628;BME280;10473;42.734;24.258;2023-03-23T04:26:19;91768.03;;;7.38;78.88
20628;BME280;10473;42.734;24.258;2023-03-23T04:28:50;91770.66;;;7.19;79.00
20628;BME280;10473;42.734;24.258;2023-03-23T04:31:34;91765.09;;;7.05;78.58
20628;BME280;10473;42.734;24.258;2023-03-23T04:34:31;91770.72;;;7.03;78.66
20628;BME280;10473;42.734;24.258;2023-03-23T04:37:01;91775.09;;;7.15;79.13
20628;BME280;10473;42.734;24.258;2023-03-23T04:39:32;91762.13;;;7.25;78.54
20628;BME280;10473;42.734;24.258;2023-03-23T04:42:03;91765.09;;;7.05;78.32
20628;BME280;10473;42.734;24.258;2023-03-23T04:44:54;91773.50;;;7.10;77.83
20628;BME280;10473;42.734;24.258;2023-03-23T04:47:33;91774.97;;;7.27;78.13
20628;BME280;10473;42.734;24.258;2023-03-23T04:50:08;91780.09;;;7.39;78.27
20628;BME280;10473;42.734;24.258;2023-03-23T04:52:39;91780.03;;;7.35;78.23
20628;BME280;10473;42.734;24.258;2023-03-23T04:55:13;91772.66;;;7.44;76.33
20628;BME280;10473;42.734;24.258;2023-03-23T04:57:45;91775.72;;;7.46;74.72
20628;BME280;10473;42.734;24.258;2023-03-23T05:00:36;91784.50;;;7.54;74.61
20628;BME280;10473;42.734;24.258;2023-03-23T05:03:04;91782.28;;;7.56;75.03
20628;BME280;10473;42.734;24.258;2023-03-23T05:05:34;91783.25;;;7.67;75.32
20628;BME280;10473;42.734;24.258;2023-03-23T05:08:06;91788.44;;;7.63;74.21
20628;BME280;10473;42.734;24.258;2023-03-23T05:10:39;91781.94;;;7.57;75.26
20628;BME280;10473;42.734;24.258;2023-03-23T05:13:14;91785.59;;;7.72;73.39
20628;BME280;10473;42.734;24.258;2023-03-23T05:15:44;91792.44;;;7.76;73.61
20628;BME280;10473;42.734;24.258;2023-03-23T05:18:12;91791.91;;;7.67;73.08
20628;BME280;10473;42.734;24.258;2023-03-23T05:20:40;91801.00;;;7.51;73.57
20628;BME280;10473;42.734;24.258;2023-03-23T05:23:15;91806.97;;;7.67;71.56
20628;BME280;10473;42.734;24.258;2023-03-23T05:25:52;91796.56;;;7.74;70.38
20628;BME280;10473;42.734;24.258;2023-03-23T05:28:20;91800.31;;;7.73;70.75
20628;BME280;10473;42.734;24.258;2023-03-23T05:30:56;91801.41;;;7.91;69.92
20628;BME280;10473;42.734;24.258;2023-03-23T05:33:28;91797.00;;;7.98;69.93
20628;BME280;10473;42.734;24.258;2023-03-23T05:36:15;91808.31;;;7.99;69.60
20628;BME280;10473;42.734;24.258;2023-03-23T05:39:21;91813.56;;;7.99;69.24
20628;BME280;10473;42.734;24.258;2023-03-23T05:42:03;91814.69;;;7.98;69.62
20628;BME280;10473;42.734;24.258;2023-03-23T05:44:46;91799.06;;;8.08;69.26
20628;BME280;10473;42.734;24.258;2023-03-23T05:47:14;91817.69;;;8.19;69.59
20628;BME280;10473;42.734;24.258;2023-03-23T05:49:50;91815.09;;;8.00;71.09
20628;BME280;10473;42.734;24.258;2023-03-23T05:52:19;91816.31;;;8.25;71.08
20628;BME280;10473;42.734;24.258;2023-03-23T05:54:48;91809.09;;;8.44;70.83
20628;BME280;10473;42.734;24.258;2023-03-23T05:57:18;91807.56;;;8.43;68.46
20628;BME280;10473;42.734;24.258;2023-03-23T05:59:52;91821.69;;;8.54;67.11
20628;BME280;10473;42.734;24.258;2023-03-23T06:02:24;91808.66;;;8.65;65.66
20628;BME280;10473;42.734;24.258;2023-03-23T06:04:55;91815.25;;;8.78;64.49
20628;BME280;10473;42.734;24.258;2023-03-23T06:07:30;91817.25;;;8.84;64.70
20628;BME280;10473;42.734;24.258;2023-03-23T06:10:02;91819.97;;;8.91;65.61
20628;BME280;10473;42.734;24.258;2023-03-23T06:12:39;91828.41;;;9.00;64.65
20628;BME280;10473;42.734;24.258;2023-03-23T06:15:27;91827.44;;;9.12;63.19
20628;BME280;10473;42.734;24.258;2023-03-23T06:17:58;91832.97;;;9.29;62.69
20628;BME280;10473;42.734;24.258;2023-03-23T06:20:31;91821.81;;;9.43;66.18
20628;BME280;10473;42.734;24.258;2023-03-23T06:23:10;91833.69;;;9.56;66.80
20628;BME280;10473;42.734;24.258;2023-03-23T06:25:39;91830.19;;;9.78;66.52
20628;BME280;10473;42.734;24.258;2023-03-23T06:28:10;91828.44;;;9.92;66.77
20628;BME280;10473;42.734;24.258;2023-03-23T06:30:42;91840.47;;;9.86;65.35
20628;BME280;10473;42.734;24.258;2023-03-23T06:33:10;91829.88;;;9.86;65.91
20628;BME280;10473;42.734;24.258;2023-03-23T06:35:57;91841.78;;;10.03;66.24
20628;BME280;10473;42.734;24.258;2023-03-23T06:38:41;91841.91;;;10.13;64.81
20628;BME280;10473;42.734;24.258;2023-03-23T06:41:09;91840.41;;;10.12;64.39
20628;BME280;10473;42.734;24.258;2023-03-23T06:43:38;91845.75;;;10.19;63.96
20628;BME280;10473;42.734;24.258;2023-03-23T06:46:13;91845.81;;;10.23;65.14
20628;BME280;10473;42.734;24.258;2023-03-23T06:48:41;91846.19;;;10.25;66.26
20628;BME280;10473;42.734;24.258;2023-03-23T06:51:12;91845.47;;;10.28;66.74
20628;BME280;10473;42.734;24.258;2023-03-23T06:53:44;91841.69;;;10.29;67.00
20628;BME280;10473;42.734;24.258;2023-03-23T06:56:13;91853.09;;;10.33;66.35
20628;BME280;10473;42.734;24.258;2023-03-23T06:58:44;91848.13;;;10.28;66.40
20628;BME280;10473;42.734;24.258;2023-03-23T07:01:14;91845.38;;;10.21;65.48
20628;BME280;10473;42.734;24.258;2023-03-23T07:03:50;91848.50;;;10.30;65.59
20628;BME280;10473;42.734;24.258;2023-03-23T07:06:28;91848.13;;;10.28;66.54
20628;BME280;10473;42.734;24.258;2023-03-23T07:08:59;91858.13;;;10.45;64.22
20628;BME280;10473;42.734;24.258;2023-03-23T07:11:29;91857.47;;;10.58;63.32
20628;BME280;10473;42.734;24.258;2023-03-23T07:14:03;91855.59;;;10.59;60.69
20628;BME280;10473;42.734;24.258;2023-03-23T07:16:30;91859.88;;;10.70;59.54
20628;BME280;10473;42.734;24.258;2023-03-23T07:19:00;91856.16;;;10.82;57.65
20628;BME280;10473;42.734;24.258;2023-03-23T07:21:28;91852.03;;;10.88;59.51
20628;BME280;10473;42.734;24.258;2023-03-23T07:23:56;91863.03;;;10.90;60.03
20628;BME280;10473;42.734;24.258;2023-03-23T07:26:38;91865.41;;;11.02;59.59
20628;BME280;10473;42.734;24.258;2023-03-23T07:29:07;91869.69;;;11.17;59.50
20628;BME280;10473;42.734;24.258;2023-03-23T07:31:41;91876.94;;;11.27;58.18
20628;BME280;10473;42.734;24.258;2023-03-23T07:34:09;91881.22;;;11.42;58.22
20628;BME280;10473;42.734;24.258;2023-03-23T07:36:46;91883.47;;;11.40;57.72
20628;BME280;10473;42.734;24.258;2023-03-23T07:39:15;91898.75;;;11.57;58.53
20628;BME280;10473;42.734;24.258;2023-03-23T07:41:43;91892.75;;;11.67;58.19
20628;BME280;10473;42.734;24.258;2023-03-23T07:44:22;91895.03;;;11.65;59.49
20628;BME280;10473;42.734;24.258;2023-03-23T07:47:14;91899.59;;;11.71;57.06
20628;BME280;10473;42.734;24.258;2023-03-23T07:49:46;91908.19;;;12.19;54.85
20628;BME280;10473;42.734;24.258;2023-03-23T07:52:27;91909.09;;;12.86;53.35
20628;BME280;10473;42.734;24.258;2023-03-23T07:54:56;91905.31;;;13.64;55.00
20628;BME280;10473;42.734;24.258;2023-03-23T07:57:35;91912.59;;;14.60;50.47
20628;BME280;10473;42.734;24.258;2023-03-23T08:00:07;91907.59;;;15.34;49.88
20628;BME280;10473;42.734;24.258;2023-03-23T08:02:43;91910.41;;;16.38;50.22
20628;BME280;10473;42.734;24.258;2023-03-23T08:05:31;91918.78;;;17.53;46.71
20628;BME280;10473;42.734;24.258;2023-03-23T08:08:18;91913.59;;;18.31;42.21
20628;BME280;10473;42.734;24.258;2023-03-23T08:11:05;91922.63;;;18.79;39.17
20628;BME280;10473;42.734;24.258;2023-03-23T08:13:42;91915.00;;;19.49;42.12
20628;BME280;10473;42.734;24.258;2023-03-23T08:16:34;91917.59;;;20.00;38.54
20628;BME280;10473;42.734;24.258;2023-03-23T08:19:08;91918.09;;;20.11;42.21
20628;BME280;10473;42.734;24.258;2023-03-23T08:22:00;91923.72;;;20.74;35.86
20628;BME280;10473;42.734;24.258;2023-03-23T08:24:34;91917.56;;;19.20;36.66
20628;BME280;10473;42.734;24.258;2023-03-23T08:27:20;91922.78;;;19.08;39.03
20628;BME280;10473;42.734;24.258;2023-03-23T08:30:16;91933.00;;;18.97;37.90
20628;BME280;10473;42.734;24.258;2023-03-23T08:32:46;91920.56;;;18.28;40.51
20628;BME280;10473;42.734;24.258;2023-03-23T08:35:28;91916.22;;;17.92;40.25
20628;BME280;10473;42.734;24.258;2023-03-23T08:38:13;91925.47;;;17.15;41.80
20628;BME280;10473;42.734;24.258;2023-03-23T08:41:03;91912.00;;;16.65;41.80
20628;BME280;10473;42.734;24.258;2023-03-23T08:43:51;91910.03;;;16.69;43.57
20628;BME280;10473;42.734;24.258;2023-03-23T08:46:38;91912.78;;;16.92;41.93
20628;BME280;10473;42.734;24.258;2023-03-23T08:49:35;91918.63;;;17.63;43.53
20628;BME280;10473;42.734;24.258;2023-03-23T08:52:11;91906.38;;;18.28;40.00
20628;BME280;10473;42.734;24.258;2023-03-23T08:54:53;91918.44;;;17.97;40.04
20628;BME280;10473;42.734;24.258;2023-03-23T08:57:41;91911.53;;;17.00;40.65
20628;BME280;10473;42.734;24.258;2023-03-23T09:00:22;91915.97;;;17.10;41.48
20628;BME280;10473;42.734;24.258;2023-03-23T09:03:14;91913.47;;;16.70;42.90
20628;BME280;10473;42.734;24.258;2023-03-23T09:06:14;91912.00;;;15.95;42.17
20628;BME280;10473;42.734;24.258;2023-03-23T09:08:45;91902.28;;;16.11;44.30
20628;BME280;10473;42.734;24.258;2023-03-23T09:11:13;91891.22;;;14.77;46.64
20628;BME280;10473;42.734;24.258;2023-03-23T09:13:40;91902.66;;;14.71;47.14
20628;BME280;10473;42.734;24.258;2023-03-23T09:16:08;91912.19;;;14.72;46.82
20628;BME280;10473;42.734;24.258;2023-03-23T09:18:36;91904.66;;;14.53;47.07
20628;BME280;10473;42.734;24.258;2023-03-23T09:21:04;91910.84;;;14.36;48.29
20628;BME280;10473;42.734;24.258;2023-03-23T09:23:34;91915.00;;;14.40;47.00
20628;BME280;10473;42.734;24.258;2023-03-23T09:26:02;91908.97;;;14.26;47.10
20628;BME280;10473;42.734;24.258;2023-03-23T09:28:30;91899.16;;;13.88;47.70
20628;BME280;10473;42.734;24.258;2023-03-23T09:30:58;91912.13;;;13.89;49.78
20628;BME280;10473;42.734;24.258;2023-03-23T09:33:26;91916.28;;;13.94;50.32
20628;BME280;10473;42.734;24.258;2023-03-23T09:35:55;91922.72;;;14.07;48.09
20628;BME280;10473;42.734;24.258;2023-03-23T09:38:22;91888.56;;;13.60;48.50
20628;BME280;10473;42.734;24.258;2023-03-23T09:40:57;91922.06;;;13.40;49.00
20628;BME280;10473;42.734;24.258;2023-03-23T09:43:49;91908.38;;;13.41;49.41
20628;BME280;10473;42.734;24.258;2023-03-23T09:46:35;91912.94;;;13.16;49.38
20628;BME280;10473;42.734;24.258;2023-03-23T09:49:10;91915.22;;;13.42;49.81
20628;BME280;10473;42.734;24.258;2023-03-23T09:51:43;91922.00;;;12.91;49.78
20628;BME280;10473;42.734;24.258;2023-03-23T09:54:18;91920.50;;;12.83;49.90
20628;BME280;10473;42.734;24.258;2023-03-23T09:56:49;91920.44;;;12.65;50.73
20628;BME280;10473;42.734;24.258;2023-03-23T09:59:25;91924.25;;;12.61;50.64
20628;BME280;10473;42.734;24.258;2023-03-23T10:01:59;91921.63;;;12.75;50.97
20628;BME280;10473;42.734;24.258;2023-03-23T10:04:36;91913.31;;;13.15;51.16
20628;BME280;10473;42.734;24.258;2023-03-23T10:07:10;91917.84;;;13.60;51.43
20628;BME280;10473;42.734;24.258;2023-03-23T10:09:38;91913.19;;;14.06;49.84
20628;BME280;10473;42.734;24.258;2023-03-23T10:12:14;91911.38;;;13.75;48.58
20628;BME280;10473;42.734;24.258;2023-03-23T10:14:53;91913.97;;;14.03;49.24
20628;BME280;10473;42.734;24.258;2023-03-23T10:17:28;91910.09;;;14.32;48.88
20628;BME280;10473;42.734;24.258;2023-03-23T10:20:02;91912.81;;;14.11;48.23
20628;BME280;10473;42.734;24.258;2023-03-23T10:22:37;91910.91;;;14.08;47.73
20628;BME280;10473;42.734;24.258;2023-03-23T10:25:15;91912.84;;;13.97;47.33
20628;BME280;10473;42.734;24.258;2023-03-23T10:27:52;91905.56;;;14.18;48.21
20628;BME280;10473;42.734;24.258;2023-03-23T10:30:27;91913.91;;;14.24;48.61
20628;BME280;10473;42.734;24.258;2023-03-23T10:33:00;91902.09;;;14.32;49.24
20628;BME280;10473;42.734;24.258;2023-03-23T10:35:37;91911.06;;;14.66;49.65
20628;BME280;10473;42.734;24.258;2023-03-23T10:38:11;91906.06;;;14.71;47.37
20628;BME280;10473;42.734;24.258;2023-03-23T10:40:49;91910.44;;;15.06;49.46
20628;BME280;10473;42.734;24.258;2023-03-23T10:43:18;91902.19;;;15.41;47.30
20628;BME280;10473;42.734;24.258;2023-03-23T10:45:52;91912.81;;;15.51;46.35
20628;BME280;10473;42.734;24.258;2023-03-23T10:48:26;91901.81;;;15.83;45.77
20628;BME280;10473;42.734;24.258;2023-03-23T10:50:58;91902.59;;;16.17;45.91
20628;BME280;10473;42.734;24.258;2023-03-23T10:53:31;91893.22;;;16.02;45.22
20628;BME280;10473;42.734;24.258;2023-03-23T10:56:00;91901.72;;;16.27;45.18
20628;BME280;10473;42.734;24.258;2023-03-23T10:58:31;91898.13;;;16.74;44.23
20628;BME280;10473;42.734;24.258;2023-03-23T11:01:01;91900.94;;;16.63;43.04
20628;BME280;10473;42.734;24.258;2023-03-23T11:03:39;91903.66;;;16.60;43.95
20628;BME280;10473;42.734;24.258;2023-03-23T11:06:08;91898.75;;;17.11;44.64
20628;BME280;10473;42.734;24.258;2023-03-23T11:08:47;91898.41;;;17.09;41.96
20628;BME280;10473;42.734;24.258;2023-03-23T11:11:17;91895.50;;;16.70;41.04
20628;BME280;10473;42.734;24.258;2023-03-23T11:13:47;91895.69;;;16.56;41.98
20628;BME280;10473;42.734;24.258;2023-03-23T11:16:24;91891.06;;;16.87;44.11
20628;BME280;10473;42.734;24.258;2023-03-23T11:18:53;91888.44;;;17.10;44.31
20628;BME280;10473;42.734;24.258;2023-03-23T11:21:22;91892.97;;;16.86;42.63
20628;BME280;10473;42.734;24.258;2023-03-23T11:23:52;91885.94;;;16.39;43.77
20628;BME280;10473;42.734;24.258;2023-03-23T11:26:22;91885.75;;;16.53;43.62
20628;BME280;10473;42.734;24.258;2023-03-23T11:28:57;91880.59;;;16.36;43.78
20628;BME280;10473;42.734;24.258;2023-03-23T11:31:28;91877.34;;;16.55;42.79
20628;BME280;10473;42.734;24.258;2023-03-23T11:34:01;91876.38;;;16.72;45.17
20628;BME280;10473;42.734;24.258;2023-03-23T11:36:40;91885.47;;;16.48;43.76
20628;BME280;10473;42.734;24.258;2023-03-23T11:39:23;91887.06;;;16.72;43.47
20628;BME280;10473;42.734;24.258;2023-03-23T11:41:51;91884.88;;;16.63;43.24
20628;BME280;10473;42.734;24.258;2023-03-23T11:44:22;91885.25;;;16.62;42.62
20628;BME280;10473;42.734;24.258;2023-03-23T11:47:01;91872.16;;;16.71;43.73
20628;BME280;10473;42.734;24.258;2023-03-23T11:49:41;91861.25;;;17.11;44.50
20628;BME280;10473;42.734;24.258;2023-03-23T11:52:23;91866.00;;;17.27;43.40
20628;BME280;10473;42.734;24.258;2023-03-23T11:54:57;91864.44;;;17.52;43.25
20628;BME280;10473;42.734;24.258;2023-03-23T11:57:29;91862.94;;;17.94;43.13
20628;BME280;10473;42.734;24.258;2023-03-23T11:59:59;91859.88;;;18.15;40.80
20628;BME280;10473;42.734;24.258;2023-03-23T12:02:49;91861.63;;;18.25;39.76
20628;BME280;10473;42.734;24.258;2023-03-23T12:05:45;91858.03;;;17.92;41.06
20628;BME280;10473;42.734;24.258;2023-03-23T12:08:30;91842.75;;;17.66;39.97
20628;BME280;10473;42.734;24.258;2023-03-23T12:11:07;91851.31;;;17.12;41.03
20628;BME280;10473;42.734;24.258;2023-03-23T12:13:59;91861.00;;;16.76;40.62
20628;BME280;10473;42.734;24.258;2023-03-23T12:16:40;91848.31;;;16.53;42.67
20628;BME280;10473;42.734;24.258;2023-03-23T12:19:43;91849.81;;;16.24;42.15
20628;BME280;10473;42.734;24.258;2023-03-23T12:22:24;91849.50;;;16.19;43.44
20628;BME280;10473;42.734;24.258;2023-03-23T12:25:09;91849.56;;;16.12;43.34
20628;BME280;10473;42.734;24.258;2023-03-23T12:27:45;91850.38;;;16.42;43.90
20628;BME280;10473;42.734;24.258;2023-03-23T12:30:27;91857.28;;;16.70;44.86
20628;BME280;10473;42.734;24.258;2023-03-23T12:33:14;91855.97;;;16.81;42.91
20628;BME280;10473;42.734;24.258;2023-03-23T12:35:57;91856.69;;;17.08;42.96
20628;BME280;10473;42.734;24.258;2023-03-23T12:38:41;91857.31;;;17.19;42.72
20628;BME280;10473;42.734;24.258;2023-03-23T12:41:16;91848.84;;;17.21;41.14
20628;BME280;10473;42.734;24.258;2023-03-23T12:43:51;91861.09;;;17.22;40.50
20628;BME280;10473;42.734;24.258;2023-03-23T12:46:43;91861.66;;;16.83;43.15
20628;BME280;10473;42.734;24.258;2023-03-23T12:49:18;91852.47;;;16.28;43.25
20628;BME280;10473;42.734;24.258;2023-03-23T12:51:51;91848.56;;;16.32;42.85
20628;BME280;10473;42.734;24.258;2023-03-23T12:54:27;91838.56;;;16.40;42.91
20628;BME280;10473;42.734;24.258;2023-03-23T12:57:01;91851.16;;;16.43;44.37
20628;BME280;10473;42.734;24.258;2023-03-23T12:59:36;91854.31;;;16.64;44.25
20628;BME280;10473;42.734;24.258;2023-03-23T13:02:13;91853.34;;;16.78;43.48
20628;BME280;10473;42.734;24.258;2023-03-23T13:04:45;91853.81;;;16.99;41.40
20628;BME280;10473;42.734;24.258;2023-03-23T13:07:35;91851.59;;;16.94;42.46
20628;BME280;10473;42.734;24.258;2023-03-23T13:10:12;91839.00;;;16.65;42.89
20628;BME280;10473;42.734;24.258;2023-03-23T13:12:46;91846.69;;;16.59;42.27
20628;BME280;10473;42.734;24.258;2023-03-23T13:15:27;91854.69;;;16.63;42.15
20628;BME280;10473;42.734;24.258;2023-03-23T13:18:04;91849.97;;;16.44;42.82
20628;BME280;10473;42.734;24.258;2023-03-23T13:20:47;91838.03;;;16.18;43.24
20628;BME280;10473;42.734;24.258;2023-03-23T13:23:22;91828.78;;;16.26;44.31
20628;BME280;10473;42.734;24.258;2023-03-23T13:25:54;91841.78;;;16.24;43.08
20628;BME280;10473;42.734;24.258;2023-03-23T13:28:25;91842.44;;;16.02;42.25
20628;BME280;10473;42.734;24.258;2023-03-23T13:31:21;91846.91;;;16.12;41.70
20628;BME280;10473;42.734;24.258;2023-03-23T13:33:53;91838.31;;;15.97;42.10
20628;BME280;10473;42.734;24.258;2023-03-23T13:36:30;91837.28;;;15.84;40.89